createdAt,value
2018-06-13T00:03:58.847Z,99.90
2018-06-13T00:09:02.151Z,99.90
2018-06-13T00:14:05.631Z,99.90
2018-06-13T00:19:08.905Z,99.90
2018-06-13T00:24:12.170Z,99.90
2018-06-13T00:29:15.443Z,99.90
2018-06-13T00:34:18.695Z,99.90
2018-06-13T00:39:21.941Z,99.90
2018-06-13T00:44:25.202Z,99.90
2018-06-13T00:49:28.440Z,99.90
2018-06-13T00:54:31.684Z,99.90
2018-06-13T00:59:35.383Z,99.90
2018-06-13T01:04:38.668Z,99.90
2018-06-13T01:09:41.951Z,99.90
2018-06-13T01:14:45.203Z,99.90
2018-06-13T01:19:48.527Z,99.90
2018-06-13T01:24:51.788Z,99.90
2018-06-13T01:29:55.044Z,99.90
2018-06-13T01:34:58.331Z,99.90
2018-06-13T01:40:01.596Z,99.90
2018-06-13T01:45:05.132Z,99.90
2018-06-13T01:50:08.407Z,99.90
2018-06-13T01:55:11.666Z,99.90
2018-06-13T02:00:14.928Z,99.90
2018-06-13T02:05:18.201Z,99.90
2018-06-13T02:10:21.454Z,99.90
2018-06-13T02:15:24.733Z,99.90
2018-06-13T02:20:27.995Z,99.90
2018-06-13T02:25:31.263Z,99.90
2018-06-13T02:30:34.511Z,99.90
2018-06-13T02:45:43.809Z,99.90
2018-06-13T02:50:47.079Z,99.90
2018-06-13T02:55:50.339Z,99.90
2018-06-13T03:00:54.448Z,99.90
2018-06-13T03:05:57.701Z,99.90
2018-06-13T03:11:00.964Z,99.90
2018-06-13T03:16:04.248Z,99.90
2018-06-13T03:21:07.516Z,99.90
2018-06-13T03:26:10.789Z,99.90
2018-06-13T03:31:14.055Z,99.90
2018-06-13T03:36:17.308Z,99.90
2018-06-13T03:41:20.644Z,99.90
2018-06-13T03:46:23.931Z,99.90
2018-06-13T03:51:27.213Z,99.90
2018-06-13T03:56:30.472Z,99.90
2018-06-13T04:01:33.862Z,99.90
2018-06-13T04:06:37.228Z,99.90
2018-06-13T04:11:40.522Z,99.90
2018-06-13T04:16:44.935Z,99.90
2018-06-13T04:21:48.182Z,99.90
2018-06-13T04:31:55.489Z,99.90
2018-06-13T04:36:58.881Z,99.90
2018-06-13T04:42:03.321Z,99.90
2018-06-13T04:52:11.882Z,99.90
2018-06-13T05:02:18.217Z,99.90
2018-06-13T05:07:21.539Z,99.90
2018-06-13T05:12:24.827Z,99.90
2018-06-13T05:17:28.100Z,99.90
2018-06-13T05:22:31.376Z,99.90
2018-06-13T05:27:34.680Z,99.90
2018-06-13T05:32:38.012Z,99.90
2018-06-13T05:37:41.287Z,99.90
2018-06-13T05:42:44.587Z,99.90
2018-06-13T05:47:47.895Z,99.90
2018-06-13T05:52:51.224Z,99.90
2018-06-13T05:57:54.512Z,99.90
2018-06-13T06:02:57.780Z,99.90
2018-06-13T06:08:01.051Z,99.90
2018-06-13T06:13:04.413Z,99.90
2018-06-13T06:18:07.664Z,99.90
2018-06-13T06:23:10.965Z,99.90
2018-06-13T06:28:14.240Z,99.90
2018-06-13T06:33:17.572Z,99.90
2018-06-13T06:38:20.807Z,99.90
2018-06-13T06:43:24.083Z,99.90
2018-06-13T06:48:27.340Z,99.90
2018-06-13T06:53:30.640Z,99.90
2018-06-13T06:58:33.907Z,99.90
2018-06-13T07:03:37.187Z,99.90
2018-06-13T07:08:40.442Z,99.90
2018-06-13T07:13:43.718Z,99.90
2018-06-13T07:18:47.004Z,99.90
2018-06-13T07:23:50.277Z,99.90
2018-06-13T07:28:53.560Z,99.90
2018-06-13T07:33:56.900Z,99.90
2018-06-13T07:39:00.193Z,99.90
2018-06-13T07:44:03.454Z,99.90
2018-06-13T07:49:06.719Z,99.90
2018-06-13T07:54:09.995Z,99.90
2018-06-13T07:59:13.293Z,99.90
2018-06-13T08:04:16.568Z,99.90
2018-06-13T08:09:19.843Z,99.60
2018-06-13T08:14:23.108Z,99.90
2018-06-13T08:19:26.391Z,99.90
2018-06-13T08:24:34.508Z,99.90
2018-06-13T08:29:37.781Z,98.30
2018-06-13T08:34:41.029Z,97.90
2018-06-13T08:44:47.333Z,95.40
2018-06-13T08:49:51.165Z,93.30
2018-06-13T08:54:54.449Z,92.90
2018-06-13T08:59:57.716Z,95.00
2018-06-13T09:05:00.975Z,95.60
2018-06-13T09:10:04.276Z,94.40
2018-06-13T09:15:07.566Z,95.00
2018-06-13T09:20:10.858Z,94.10
2018-06-13T09:25:14.167Z,92.30
2018-06-13T09:30:17.463Z,92.30
2018-06-13T09:40:23.740Z,92.70
2018-06-13T09:45:27.028Z,91.20
2018-06-13T09:50:30.287Z,90.50
2018-06-13T10:00:41.949Z,90.40
2018-06-13T10:05:45.216Z,90.50
2018-06-13T10:10:48.500Z,91.10
2018-06-13T10:15:51.792Z,86.70
2018-06-13T10:20:55.024Z,88.90
2018-06-13T10:25:58.255Z,85.70
2018-06-13T10:31:04.537Z,83.00
2018-06-13T10:36:07.849Z,87.10
2018-06-13T10:41:11.115Z,80.90
2018-06-13T10:46:14.400Z,81.80
2018-06-13T10:51:17.687Z,82.20
2018-06-13T10:56:20.972Z,83.40
2018-06-13T11:01:24.236Z,84.30
2018-06-13T11:06:27.521Z,86.50
2018-06-13T11:11:30.797Z,85.70
2018-06-13T11:16:34.067Z,85.80
2018-06-13T11:21:37.328Z,87.30
2018-06-13T11:26:40.648Z,87.90
2018-06-13T11:31:43.929Z,85.40
2018-06-13T11:36:47.199Z,86.10
2018-06-13T11:41:50.484Z,82.70
2018-06-13T11:46:53.749Z,84.00
2018-06-13T11:51:57.016Z,84.60
2018-06-13T11:57:00.299Z,81.00
2018-06-13T12:02:03.572Z,80.90
2018-06-13T12:07:06.862Z,78.90
2018-06-13T12:12:10.116Z,80.50
2018-06-13T12:17:13.430Z,78.70
2018-06-13T12:22:16.713Z,78.60
2018-06-13T12:27:19.988Z,80.10
2018-06-13T12:32:23.234Z,77.80
2018-06-13T12:37:26.511Z,76.90
2018-06-13T12:42:29.779Z,77.50
2018-06-13T12:47:33.037Z,77.40
2018-06-13T12:52:36.303Z,79.30
2018-06-13T12:57:39.579Z,78.90
2018-06-13T13:02:42.852Z,81.80
2018-06-13T13:07:46.132Z,80.30
2018-06-13T13:12:49.411Z,78.30
2018-06-13T13:17:52.830Z,79.40
2018-06-13T13:22:56.109Z,80.20
2018-06-13T13:27:59.418Z,78.20
2018-06-13T13:33:02.786Z,76.40
2018-06-13T13:38:06.053Z,76.70
2018-06-13T13:43:09.329Z,76.00
2018-06-13T13:48:12.859Z,76.30
2018-06-13T13:53:16.251Z,76.80
2018-06-13T13:58:19.575Z,78.60
2018-06-13T14:03:22.855Z,77.90
2018-06-13T14:08:26.139Z,78.10
2018-06-13T14:13:29.413Z,78.70
2018-06-13T14:18:32.716Z,79.20
2018-06-13T14:23:35.993Z,81.30
2018-06-13T14:28:39.260Z,79.80
2018-06-13T14:33:42.527Z,80.70
2018-06-13T14:38:45.805Z,81.80
2018-06-13T14:43:49.077Z,80.50
2018-06-13T14:48:52.352Z,78.80
2018-06-13T14:53:57.079Z,78.80
2018-06-13T14:59:01.621Z,78.90
2018-06-13T15:04:04.895Z,76.90
2018-06-13T15:09:09.790Z,76.10
2018-06-13T15:14:13.051Z,77.00
2018-06-13T15:19:16.371Z,76.70
2018-06-13T15:24:19.686Z,80.00
2018-06-13T15:29:22.965Z,77.20
2018-06-13T15:34:26.341Z,78.40
2018-06-13T15:39:29.721Z,77.50
2018-06-13T15:49:36.151Z,79.10
2018-06-13T15:54:39.433Z,78.40
2018-06-13T15:59:42.684Z,79.50
2018-06-13T16:04:46.118Z,78.70
2018-06-13T16:09:49.734Z,79.80
2018-06-13T16:14:53.017Z,79.50
2018-06-13T16:24:59.351Z,78.70
2018-06-13T16:30:02.637Z,79.60
2018-06-13T16:40:08.955Z,80.70
2018-06-13T16:50:27.882Z,79.50
2018-06-13T16:55:31.184Z,75.90
2018-06-13T17:00:34.781Z,74.40
2018-06-13T17:05:38.051Z,73.30
2018-06-13T17:10:41.828Z,72.80
2018-06-13T17:20:48.097Z,74.00
2018-06-13T17:25:51.668Z,75.40
2018-06-13T17:30:55.306Z,75.60
2018-06-13T17:35:58.659Z,75.10
2018-06-13T17:41:02.521Z,76.70
2018-06-13T17:51:08.876Z,77.70
2018-06-13T17:56:12.147Z,78.20
2018-06-13T18:06:19.413Z,76.10
2018-06-13T18:11:23.320Z,78.00
2018-06-13T18:16:26.870Z,76.60
2018-06-13T18:21:30.721Z,77.40
2018-06-13T18:26:34.627Z,78.20
2018-06-13T18:31:38.584Z,78.70
2018-06-13T18:36:42.302Z,79.40
2018-06-13T18:41:45.859Z,80.10
2018-06-13T18:46:49.543Z,78.30
2018-06-13T18:51:53.052Z,77.20
2018-06-13T18:56:56.341Z,77.90
2018-06-13T19:01:59.715Z,79.50
2018-06-13T19:07:03.119Z,79.70
2018-06-13T19:12:06.713Z,80.20
2018-06-13T19:17:10.014Z,80.10
2018-06-13T19:22:13.324Z,80.20
2018-06-13T19:27:16.629Z,80.90
2018-06-13T19:32:20.008Z,81.70
2018-06-13T19:37:23.412Z,82.40
2018-06-13T19:42:26.744Z,83.60
2018-06-13T19:47:35.494Z,81.90
2018-06-13T19:52:44.268Z,82.40
2018-06-13T19:57:47.584Z,83.20
2018-06-13T20:02:56.232Z,81.30
2018-06-13T20:07:59.516Z,82.00
2018-06-13T20:13:08.119Z,83.70
2018-06-13T20:18:16.823Z,82.30
2018-06-13T20:23:20.091Z,79.90
2018-06-13T20:28:28.721Z,80.60
2018-06-13T20:33:32.039Z,79.90
2018-06-13T20:38:35.487Z,80.20
2018-06-13T20:43:39.013Z,81.00
2018-06-13T20:48:42.285Z,81.00
2018-06-13T20:53:45.582Z,81.80
2018-06-13T20:58:48.936Z,82.30
2018-06-13T21:03:52.375Z,82.80
2018-06-13T21:08:55.746Z,83.70
2018-06-13T21:19:08.109Z,83.50
2018-06-13T21:29:14.429Z,84.60
2018-06-13T21:34:17.699Z,84.60
2018-06-13T21:39:20.993Z,85.00
2018-06-13T21:44:24.260Z,85.60
2018-06-13T21:49:27.536Z,86.40
2018-06-13T21:59:33.889Z,84.90
2018-06-13T22:04:37.245Z,86.20
2018-06-13T22:09:40.515Z,86.70
2018-06-13T22:19:51.413Z,89.50
2018-06-13T22:24:54.716Z,90.10
2018-06-13T22:29:58.284Z,90.00
2018-06-13T22:35:01.825Z,89.00
2018-06-13T22:40:05.284Z,87.00
2018-06-13T22:45:08.628Z,87.40
2018-06-13T22:50:11.897Z,88.40
2018-06-13T22:55:15.183Z,87.70
2018-06-13T23:00:58.841Z,87.80
2018-06-13T23:06:04.151Z,87.30
2018-06-13T23:16:10.425Z,89.20
2018-06-13T23:21:13.696Z,89.20
2018-06-13T23:26:18.996Z,89.40
2018-06-13T23:31:22.353Z,88.70
2018-06-13T23:36:25.654Z,89.00
2018-06-13T23:41:29.063Z,90.00
2018-06-13T23:46:32.365Z,88.70
2018-06-13T23:51:35.635Z,89.70
2018-06-13T23:56:38.987Z,90.00
